Tompo, Russia
Current Conditions -  °F | °C
As of 5:00 AM on Saturday 25 Oct 2014 (Local Time) from UEEE Reporting Station
Haze Haze  
Wind Chill: -15°   Ceiling: Unl
Heat Index: -15°   Visibility: 3mi
Dew Point: -20°   Wind: 0mph
Humidity: 77%   Direction: NA
Pressure: 30.12"   Gusts: NA
Location:  63.91°N, 135.86°E
Report Text: UEEE 241900Z 00000MPS 5000 BR SCT003 M26/M29 Q1020 NOSIG RMKQBB100 QFE756 23490150
Loading
Personal Weather Stations






























Interactive Weather Map
Tropical Storm Tracking
New forecast layout! Learn more

10-Day Weather Forecast

Advertisements
Track Severe Weather on mobile